createdAt,value
2023-05-11T00:01:08.404Z,98.87
2023-05-11T00:03:36.718Z,100.00
2023-05-11T00:06:04.947Z,100.00
2023-05-11T00:08:32.867Z,100.00
2023-05-11T00:11:01.753Z,99.98
2023-05-11T00:13:30.165Z,99.89
2023-05-11T00:15:58.644Z,98.98
2023-05-11T00:18:27.978Z,98.09
2023-05-11T00:20:56.704Z,98.50
2023-05-11T00:23:24.674Z,98.75
2023-05-11T00:25:52.508Z,98.36
2023-05-11T00:28:20.534Z,99.46
2023-05-11T00:30:48.463Z,99.87
2023-05-11T00:33:16.328Z,100.00
2023-05-11T00:35:45.611Z,100.00
2023-05-11T00:38:13.456Z,100.00
2023-05-11T00:40:41.441Z,100.00
2023-05-11T00:43:09.404Z,100.00
2023-05-11T00:45:37.537Z,100.00
2023-05-11T00:48:05.801Z,100.00
2023-05-11T00:50:33.699Z,100.00
2023-05-11T00:53:03.109Z,100.00
2023-05-11T00:55:31.802Z,100.00
2023-05-11T00:58:00.646Z,100.00
2023-05-11T01:00:28.610Z,100.00
2023-05-11T01:02:57.052Z,100.00
2023-05-11T01:05:31.302Z,100.00
2023-05-11T01:08:06.649Z,100.00
2023-05-11T01:10:43.293Z,100.00
2023-05-11T01:13:18.705Z,100.00
2023-05-11T01:15:51.846Z,100.00
2023-05-11T01:18:26.295Z,100.00
2023-05-11T01:20:58.692Z,100.00
2023-05-11T01:23:46.224Z,100.00
2023-05-11T01:26:35.084Z,100.00
2023-05-11T01:29:36.475Z,100.00
2023-05-11T01:32:09.407Z,100.00
2023-05-11T01:34:41.787Z,100.00
2023-05-11T01:37:13.932Z,100.00
2023-05-11T01:39:47.237Z,100.00
2023-05-11T01:42:17.001Z,100.00
2023-05-11T01:44:51.569Z,100.00
2023-05-11T01:47:22.637Z,100.00
2023-05-11T01:49:53.115Z,100.00
2023-05-11T01:52:22.469Z,100.00
2023-05-11T01:54:52.973Z,100.00
2023-05-11T01:57:22.884Z,100.00
2023-05-11T01:59:52.963Z,100.00
2023-05-11T02:02:22.949Z,100.00
2023-05-11T02:04:52.538Z,100.00
2023-05-11T02:07:21.793Z,100.00
2023-05-11T02:09:51.063Z,100.00
2023-05-11T02:12:20.431Z,100.00
2023-05-11T02:14:49.878Z,100.00
2023-05-11T02:17:20.151Z,100.00
2023-05-11T02:19:50.546Z,100.00
2023-05-11T02:22:20.716Z,100.00
2023-05-11T02:24:49.639Z,100.00
2023-05-11T02:27:17.615Z,100.00
2023-05-11T02:29:46.512Z,100.00
2023-05-11T02:32:18.367Z,100.00
2023-05-11T02:34:55.520Z,100.00
2023-05-11T02:37:26.736Z,100.00
2023-05-11T02:40:00.526Z,100.00
2023-05-11T02:42:31.093Z,100.00
2023-05-11T02:45:03.399Z,100.00
2023-05-11T02:47:37.137Z,100.00
2023-05-11T02:50:09.355Z,100.00
2023-05-11T02:52:42.466Z,100.00
2023-05-11T02:55:12.025Z,100.00
2023-05-11T02:57:40.252Z,100.00
2023-05-11T03:00:10.053Z,100.00
2023-05-11T03:02:38.076Z,100.00
2023-05-11T03:05:08.288Z,100.00
2023-05-11T03:07:36.562Z,100.00
2023-05-11T03:10:05.239Z,100.00
2023-05-11T03:12:34.653Z,100.00
2023-05-11T03:15:04.159Z,100.00
2023-05-11T03:17:32.563Z,100.00
2023-05-11T03:20:03.751Z,100.00
2023-05-11T03:22:33.733Z,100.00
2023-05-11T03:25:03.871Z,100.00
2023-05-11T03:27:34.281Z,100.00
2023-05-11T03:30:04.211Z,100.00
2023-05-11T03:32:32.092Z,100.00
2023-05-11T03:35:00.061Z,100.00
2023-05-11T03:37:30.913Z,100.00
2023-05-11T03:40:02.194Z,100.00
2023-05-11T03:42:32.090Z,100.00
2023-05-11T03:45:01.422Z,100.00
2023-05-11T03:47:30.839Z,100.00
2023-05-11T03:50:00.034Z,100.00
2023-05-11T03:52:28.371Z,100.00
2023-05-11T03:54:56.385Z,100.00
2023-05-11T03:57:28.005Z,100.00
2023-05-11T03:59:56.057Z,100.00
2023-05-11T04:02:24.556Z,100.00
2023-05-11T04:04:53.452Z,100.00
2023-05-11T04:07:21.676Z,100.00
2023-05-11T04:09:49.585Z,100.00
2023-05-11T04:12:17.566Z,100.00
2023-05-11T04:14:46.785Z,100.00
2023-05-11T04:17:14.603Z,100.00
2023-05-11T04:19:42.752Z,100.00
2023-05-11T04:22:12.258Z,100.00
2023-05-11T04:24:40.393Z,100.00
2023-05-11T04:27:08.221Z,100.00
2023-05-11T04:29:36.247Z,100.00
2023-05-11T04:32:06.054Z,100.00
2023-05-11T04:34:33.989Z,99.18
2023-05-11T04:37:07.185Z,99.37
2023-05-11T04:39:35.308Z,98.23
2023-05-11T04:42:03.309Z,97.53
2023-05-11T04:44:31.188Z,97.88
2023-05-11T04:46:59.207Z,100.00
2023-05-11T04:49:28.527Z,100.00
2023-05-11T04:51:57.040Z,98.99
2023-05-11T04:54:24.974Z,99.99
2023-05-11T04:56:52.915Z,100.00
2023-05-11T04:59:20.925Z,96.70
2023-05-11T05:01:48.813Z,96.69
2023-05-11T05:04:16.958Z,97.11
2023-05-11T05:06:46.864Z,98.66
2023-05-11T05:09:14.709Z,100.00
2023-05-11T05:11:42.628Z,100.00
2023-05-11T05:14:10.702Z,99.99
2023-05-11T05:16:38.687Z,97.64
2023-05-11T05:19:06.722Z,96.06
2023-05-11T05:21:35.898Z,95.52
2023-05-11T05:24:06.916Z,94.70
2023-05-11T05:26:34.961Z,95.08
2023-05-11T05:29:02.888Z,93.84
2023-05-11T05:31:31.198Z,93.19
2023-05-11T05:33:59.114Z,93.62
2023-05-11T05:36:27.011Z,93.25
2023-05-11T05:38:54.874Z,93.05
2023-05-11T05:41:24.176Z,92.91
2023-05-11T05:43:52.060Z,93.15
2023-05-11T05:46:19.964Z,93.96
2023-05-11T05:48:47.939Z,93.58
2023-05-11T05:51:16.489Z,93.28
2023-05-11T05:53:44.418Z,94.09
2023-05-11T05:56:12.364Z,90.94
2023-05-11T05:58:41.642Z,88.65
2023-05-11T06:01:09.960Z,88.42
2023-05-11T06:03:38.705Z,88.27
2023-05-11T06:06:07.231Z,89.65
2023-05-11T06:08:35.170Z,89.74
2023-05-11T06:11:03.119Z,88.94
2023-05-11T06:13:31.016Z,90.09
2023-05-11T06:16:00.350Z,89.80
2023-05-11T06:18:28.333Z,91.18
2023-05-11T06:20:56.351Z,88.19
2023-05-11T06:23:24.312Z,88.38
2023-05-11T06:25:52.248Z,87.20
2023-05-11T06:28:20.113Z,88.18
2023-05-11T06:30:48.151Z,87.19
2023-05-11T06:33:17.542Z,85.12
2023-05-11T06:35:45.602Z,83.43
2023-05-11T06:38:13.497Z,81.54
2023-05-11T06:40:41.466Z,79.71
2023-05-11T06:43:09.467Z,81.36
2023-05-11T06:45:37.612Z,83.05
2023-05-11T06:48:05.933Z,83.10
2023-05-11T06:50:35.314Z,81.13
2023-05-11T06:53:03.233Z,80.20
2023-05-11T06:55:31.191Z,80.57
2023-05-11T06:57:59.075Z,81.07
2023-05-11T07:00:27.203Z,80.51
2023-05-11T07:02:55.285Z,80.45
2023-05-11T07:05:23.805Z,81.41
2023-05-11T07:07:53.101Z,81.98
2023-05-11T07:10:21.260Z,80.27
2023-05-11T07:12:49.402Z,79.42
2023-05-11T07:15:17.395Z,78.23
2023-05-11T07:17:47.797Z,79.30
2023-05-11T07:20:16.369Z,76.79
2023-05-11T07:22:44.504Z,77.88
2023-05-11T07:25:13.831Z,73.57
2023-05-11T07:27:41.708Z,73.71
2023-05-11T07:30:10.772Z,75.22
2023-05-11T07:32:38.850Z,70.57
2023-05-11T07:35:07.914Z,72.03
2023-05-11T07:37:35.792Z,72.76
2023-05-11T07:40:04.693Z,73.25
2023-05-11T07:42:34.008Z,73.86
2023-05-11T07:45:01.916Z,73.53
2023-05-11T07:47:29.890Z,75.98
2023-05-11T07:49:57.822Z,72.16
2023-05-11T07:52:25.887Z,70.88
2023-05-11T07:54:53.834Z,73.77
2023-05-11T07:57:21.890Z,75.29
2023-05-11T07:59:51.321Z,76.12
2023-05-11T08:02:19.985Z,76.11
2023-05-11T08:04:48.043Z,75.81
2023-05-11T08:07:16.064Z,75.55
2023-05-11T08:09:44.422Z,76.51
2023-05-11T08:12:12.423Z,77.09
2023-05-11T08:14:40.380Z,76.67
2023-05-11T08:17:09.694Z,75.88
2023-05-11T08:19:37.763Z,75.71
2023-05-11T08:22:06.206Z,75.75
2023-05-11T08:24:34.054Z,76.15
2023-05-11T08:27:02.829Z,74.41
2023-05-11T08:29:30.779Z,75.00
2023-05-11T08:31:59.163Z,73.91
2023-05-11T08:34:28.783Z,73.40
2023-05-11T08:36:56.755Z,74.03
2023-05-11T08:39:45.434Z,73.86
2023-05-11T08:42:15.062Z,73.65
2023-05-11T08:44:44.568Z,73.22
2023-05-11T08:49:46.049Z,75.26
2023-05-11T08:52:15.447Z,73.87
2023-05-11T08:54:43.332Z,74.42
2023-05-11T08:57:12.157Z,73.22
2023-05-11T08:59:42.183Z,73.47
2023-05-11T09:02:14.470Z,72.90
2023-05-11T09:04:44.164Z,72.27
2023-05-11T09:07:16.517Z,69.97
2023-05-11T09:09:44.455Z,71.10
2023-05-11T09:12:13.411Z,68.93
2023-05-11T09:14:41.504Z,69.80
2023-05-11T09:17:09.789Z,67.63
2023-05-11T09:19:37.797Z,67.86
2023-05-11T09:22:06.961Z,68.11
2023-05-11T09:24:36.694Z,67.87
2023-05-11T09:27:09.259Z,67.11
2023-05-11T09:29:37.484Z,67.21
2023-05-11T09:32:06.229Z,66.90
2023-05-11T09:34:34.224Z,65.86
2023-05-11T09:37:02.356Z,64.61
2023-05-11T09:39:38.097Z,65.63
2023-05-11T09:42:18.209Z,65.80
2023-05-11T09:44:47.353Z,64.22
2023-05-11T09:47:17.608Z,63.46
2023-05-11T09:49:47.781Z,63.81
2023-05-11T09:52:17.529Z,66.04
2023-05-11T09:54:47.794Z,62.88
2023-05-11T09:57:27.855Z,63.00
2023-05-11T09:59:56.928Z,62.81
2023-05-11T10:02:26.473Z,62.60
2023-05-11T10:04:55.611Z,64.03
2023-05-11T10:07:31.451Z,62.06
2023-05-11T10:10:01.721Z,62.41
2023-05-11T10:12:33.472Z,64.10
2023-05-11T10:15:04.359Z,61.17
2023-05-11T10:17:33.142Z,61.91
2023-05-11T10:20:04.295Z,62.04
2023-05-11T10:22:32.921Z,59.90
2023-05-11T10:25:01.603Z,61.18
2023-05-11T10:27:32.903Z,62.22
2023-05-11T10:30:01.817Z,60.55
2023-05-11T10:32:30.789Z,60.79
2023-05-11T10:34:59.377Z,61.99
2023-05-11T10:37:28.552Z,60.00
2023-05-11T10:39:58.284Z,60.34
2023-05-11T10:42:42.621Z,58.64
2023-05-11T10:45:22.633Z,59.57
2023-05-11T10:48:10.854Z,58.93
2023-05-11T10:50:54.281Z,61.07
2023-05-11T10:53:44.144Z,61.82
2023-05-11T10:56:27.421Z,60.82
2023-05-11T10:59:22.454Z,58.16
2023-05-11T11:01:52.286Z,59.23
2023-05-11T11:04:20.594Z,57.88
2023-05-11T11:06:48.685Z,58.42
2023-05-11T11:09:17.663Z,59.67
2023-05-11T11:11:47.302Z,60.15
2023-05-11T11:14:17.922Z,57.01
2023-05-11T11:17:24.378Z,56.69
2023-05-11T11:19:52.418Z,57.43
2023-05-11T11:22:47.417Z,56.65
2023-05-11T11:25:17.614Z,54.27
2023-05-11T11:27:59.825Z,54.60
2023-05-11T11:30:30.790Z,56.06
2023-05-11T11:33:33.164Z,55.14
2023-05-11T11:36:01.133Z,55.56
2023-05-11T11:38:29.729Z,54.05
2023-05-11T11:40:57.893Z,53.53
2023-05-11T11:43:27.575Z,51.09
2023-05-11T11:45:58.440Z,51.24
2023-05-11T11:48:35.677Z,51.57
2023-05-11T11:51:05.958Z,51.30
2023-05-11T11:54:07.412Z,52.83
2023-05-11T11:56:41.746Z,53.19
2023-05-11T11:59:14.195Z,52.88
2023-05-11T12:01:45.179Z,52.07
2023-05-11T12:04:44.501Z,53.53
2023-05-11T12:07:14.528Z,52.07
2023-05-11T12:09:42.529Z,53.80
2023-05-11T12:12:11.340Z,54.07
2023-05-11T12:14:40.813Z,54.22
2023-05-11T12:17:15.386Z,52.69
2023-05-11T12:19:44.878Z,51.98
2023-05-11T12:22:14.881Z,50.44
2023-05-11T12:24:44.094Z,49.59
2023-05-11T12:27:12.110Z,50.82
2023-05-11T12:29:41.390Z,49.72
2023-05-11T12:32:14.492Z,49.33
2023-05-11T12:34:42.490Z,48.49
2023-05-11T12:37:10.612Z,49.07
2023-05-11T12:39:39.665Z,49.97
2023-05-11T12:42:07.776Z,50.61
2023-05-11T12:44:36.406Z,50.76
2023-05-11T12:47:05.009Z,51.00
2023-05-11T12:49:34.460Z,51.32
2023-05-11T12:52:08.023Z,51.57
2023-05-11T12:54:38.835Z,49.59
2023-05-11T12:57:08.022Z,49.08
2023-05-11T12:59:38.942Z,48.95
2023-05-11T13:02:12.498Z,49.33
2023-05-11T13:04:43.612Z,49.33
2023-05-11T13:07:13.167Z,49.74
2023-05-11T13:09:41.552Z,49.77
2023-05-11T13:12:11.360Z,48.90
2023-05-11T13:14:39.458Z,48.12
2023-05-11T13:17:07.544Z,48.66
2023-05-11T13:19:37.493Z,48.41
2023-05-11T13:22:08.364Z,48.18
2023-05-11T13:24:36.359Z,48.25
2023-05-11T13:27:04.262Z,46.35
2023-05-11T13:29:32.201Z,46.28
2023-05-11T13:32:00.291Z,47.44
2023-05-11T13:34:28.274Z,46.90
2023-05-11T13:36:56.210Z,47.21
2023-05-11T13:39:25.566Z,47.91
2023-05-11T13:41:55.597Z,46.90
2023-05-11T13:44:24.051Z,45.43
2023-05-11T13:46:51.989Z,44.56
2023-05-11T13:49:19.918Z,44.19
2023-05-11T13:51:47.747Z,46.88
2023-05-11T13:54:15.794Z,47.00
2023-05-11T13:56:45.089Z,46.02
2023-05-11T13:59:12.981Z,46.71
2023-05-11T14:01:40.985Z,47.09
2023-05-11T14:04:08.933Z,47.48
2023-05-11T14:06:37.035Z,48.07
2023-05-11T14:09:05.322Z,48.02
2023-05-11T14:11:33.270Z,48.65
2023-05-11T14:14:03.082Z,48.41
2023-05-11T14:16:31.157Z,46.89
2023-05-11T14:18:59.145Z,46.04
2023-05-11T14:21:27.128Z,45.41
2023-05-11T14:24:10.007Z,46.00
2023-05-11T14:26:39.372Z,46.84
2023-05-11T14:29:08.948Z,46.73
2023-05-11T14:31:37.876Z,47.16
2023-05-11T14:34:06.268Z,47.42
2023-05-11T14:36:34.388Z,47.66
2023-05-11T14:39:02.754Z,46.99
2023-05-11T14:41:31.165Z,48.04
2023-05-11T14:43:59.100Z,49.10
2023-05-11T14:46:28.864Z,47.09
2023-05-11T14:48:56.896Z,47.47
2023-05-11T14:51:25.122Z,47.12
2023-05-11T14:53:53.104Z,47.63
2023-05-11T14:56:22.107Z,49.07
2023-05-11T14:58:50.151Z,49.28
2023-05-11T15:01:18.108Z,49.26
2023-05-11T15:03:47.568Z,47.38
2023-05-11T15:06:21.184Z,47.55
2023-05-11T15:08:49.737Z,47.20
2023-05-11T15:11:17.708Z,47.08
2023-05-11T15:13:47.410Z,47.33
2023-05-11T15:16:15.990Z,48.23
2023-05-11T15:18:43.951Z,49.37
2023-05-11T15:21:13.227Z,49.27
2023-05-11T15:23:41.175Z,47.42
2023-05-11T15:26:09.069Z,48.34
2023-05-11T15:28:37.043Z,48.27
2023-05-11T15:31:05.273Z,47.96
2023-05-11T15:33:33.500Z,48.07
2023-05-11T15:36:01.441Z,48.69
2023-05-11T15:38:31.155Z,48.44
2023-05-11T15:40:59.221Z,48.55
2023-05-11T15:43:27.130Z,48.53
2023-05-11T15:45:55.428Z,49.46
2023-05-11T15:48:23.489Z,49.18
2023-05-11T15:50:51.383Z,49.45
2023-05-11T15:53:19.422Z,50.04
2023-05-11T15:55:51.022Z,50.41
2023-05-11T15:58:19.074Z,51.05
2023-05-11T16:00:47.176Z,51.34
2023-05-11T16:03:15.408Z,50.64
2023-05-11T16:05:43.421Z,51.57
2023-05-11T16:08:11.396Z,51.54
2023-05-11T16:10:39.425Z,52.22
2023-05-11T16:13:09.081Z,51.48
2023-05-11T16:15:36.986Z,51.59
2023-05-11T16:18:05.722Z,52.41
2023-05-11T16:20:33.741Z,51.71
2023-05-11T16:23:01.776Z,51.86
2023-05-11T16:25:30.300Z,51.85
2023-05-11T16:27:58.215Z,52.01
2023-05-11T16:30:27.851Z,51.97
2023-05-11T16:32:55.889Z,52.20
2023-05-11T16:35:23.953Z,52.86
2023-05-11T16:37:52.528Z,53.49
2023-05-11T16:40:21.389Z,53.49
2023-05-11T16:42:49.780Z,53.04
2023-05-11T16:45:17.910Z,53.65
2023-05-11T16:47:47.392Z,54.11
2023-05-11T16:50:16.416Z,54.58
2023-05-11T16:52:45.243Z,54.06
2023-05-11T16:55:13.267Z,54.10
2023-05-11T16:57:41.486Z,54.70
2023-05-11T17:00:10.214Z,55.09
2023-05-11T17:02:38.387Z,55.36
2023-05-11T17:05:08.889Z,54.45
2023-05-11T17:07:36.905Z,55.06
2023-05-11T17:10:05.556Z,55.49
2023-05-11T17:12:35.664Z,55.56
2023-05-11T17:15:03.736Z,54.96
2023-05-11T17:17:31.802Z,56.91
2023-05-11T17:20:01.320Z,55.80
2023-05-11T17:22:30.679Z,56.03
2023-05-11T17:24:58.717Z,55.94
2023-05-11T17:27:26.630Z,56.66
2023-05-11T17:29:54.576Z,56.45
2023-05-11T17:32:23.305Z,56.03
2023-05-11T17:34:51.485Z,56.95
2023-05-11T17:37:31.353Z,57.31
2023-05-11T17:40:02.564Z,57.94
2023-05-11T17:42:30.912Z,58.44
2023-05-11T17:44:58.964Z,58.87
2023-05-11T17:47:27.295Z,59.56
2023-05-11T17:49:55.300Z,59.04
2023-05-11T17:52:24.656Z,58.35
2023-05-11T17:54:52.949Z,58.49
2023-05-11T17:57:23.673Z,58.66
2023-05-11T17:59:51.799Z,59.46
2023-05-11T18:02:19.992Z,58.67
2023-05-11T18:04:48.324Z,58.58
2023-05-11T18:07:16.297Z,59.79
2023-05-11T18:09:44.172Z,58.66
2023-05-11T18:12:12.720Z,58.61
2023-05-11T18:14:42.747Z,60.30
2023-05-11T18:17:10.771Z,60.02
2023-05-11T18:19:38.765Z,59.81
2023-05-11T18:22:06.881Z,60.60
2023-05-11T18:24:34.840Z,60.79
2023-05-11T18:27:02.768Z,61.07
2023-05-11T18:29:30.751Z,61.44
2023-05-11T18:32:00.169Z,62.09
2023-05-11T18:34:28.195Z,62.75
2023-05-11T18:36:56.168Z,62.38
2023-05-11T18:39:24.259Z,63.08
2023-05-11T18:41:52.268Z,62.66
2023-05-11T18:44:20.223Z,63.00
2023-05-11T18:46:48.302Z,63.25
2023-05-11T18:49:17.691Z,63.83
2023-05-11T18:51:45.688Z,63.16
2023-05-11T18:54:13.698Z,63.80
2023-05-11T18:56:41.647Z,63.88
2023-05-11T18:59:09.596Z,63.43
2023-05-11T19:01:47.202Z,64.59
2023-05-11T19:04:19.916Z,64.26
2023-05-11T19:06:48.236Z,64.40
2023-05-11T19:09:16.267Z,64.17
2023-05-11T19:11:44.303Z,64.64
2023-05-11T19:14:14.702Z,65.15
2023-05-11T19:16:42.963Z,65.02
2023-05-11T19:19:11.401Z,64.61
2023-05-11T19:21:42.537Z,65.34
2023-05-11T19:24:11.200Z,65.21
2023-05-11T19:26:39.781Z,65.72
2023-05-11T19:29:09.301Z,66.12
2023-05-11T19:31:37.345Z,66.17
2023-05-11T19:34:06.872Z,65.80
2023-05-11T19:36:34.878Z,65.94
2023-05-11T19:39:04.925Z,66.63
2023-05-11T19:41:33.259Z,67.16
2023-05-11T19:44:01.702Z,66.91
2023-05-11T19:46:29.710Z,67.68
2023-05-11T19:48:57.762Z,67.81
2023-05-11T19:51:25.726Z,67.61
2023-05-11T19:53:54.854Z,67.74
2023-05-11T19:56:24.190Z,68.14
2023-05-11T19:58:52.153Z,68.68
2023-05-11T20:01:20.074Z,68.77
2023-05-11T20:03:48.216Z,69.28
2023-05-11T20:06:16.205Z,69.86
2023-05-11T20:08:45.835Z,69.98
2023-05-11T20:11:15.163Z,70.47
2023-05-11T20:13:45.533Z,70.56
2023-05-11T20:16:13.589Z,70.58
2023-05-11T20:18:41.637Z,70.80
2023-05-11T20:21:09.639Z,70.84
2023-05-11T20:23:39.298Z,71.26
2023-05-11T20:26:07.321Z,71.87
2023-05-11T20:28:35.294Z,71.66
2023-05-11T20:31:04.965Z,71.48
2023-05-11T20:36:03.915Z,72.18
2023-05-11T20:38:31.922Z,72.79
2023-05-11T20:40:59.993Z,73.41
2023-05-11T20:43:28.024Z,73.08
2023-05-11T20:45:56.033Z,73.10
2023-05-11T20:48:36.288Z,72.98
2023-05-11T20:51:08.376Z,73.97
2023-05-11T20:53:36.469Z,74.37
2023-05-11T20:56:04.585Z,75.80
2023-05-11T20:58:32.681Z,74.84
2023-05-11T21:01:01.062Z,74.65
2023-05-11T21:03:30.546Z,74.50
2023-05-11T21:05:58.713Z,74.54
2023-05-11T21:08:26.796Z,74.44
2023-05-11T21:10:54.704Z,74.72
2023-05-11T21:13:22.587Z,74.63
2023-05-11T21:15:50.707Z,75.37
2023-05-11T21:18:18.927Z,74.76
2023-05-11T21:20:48.258Z,75.95
2023-05-11T21:23:16.226Z,76.36
2023-05-11T21:25:44.164Z,76.49
2023-05-11T21:28:12.140Z,76.99
2023-05-11T21:30:40.060Z,76.38
2023-05-11T21:33:08.116Z,77.19
2023-05-11T21:35:36.267Z,77.75
2023-05-11T21:38:05.807Z,77.77
2023-05-11T21:40:33.980Z,78.29
2023-05-11T21:43:01.883Z,78.08
2023-05-11T21:45:29.834Z,77.91
2023-05-11T21:47:58.759Z,79.08
2023-05-11T21:50:26.747Z,79.62
2023-05-11T21:52:54.795Z,80.05
2023-05-11T21:55:24.345Z,79.92
2023-05-11T21:57:52.746Z,79.96
2023-05-11T22:00:22.686Z,79.77
2023-05-11T22:02:51.497Z,80.11
2023-05-11T22:05:19.558Z,79.76
2023-05-11T22:07:47.507Z,79.92
2023-05-11T22:10:15.557Z,79.33
2023-05-11T22:12:44.984Z,79.23
2023-05-11T22:15:13.372Z,79.06
2023-05-11T22:17:41.317Z,81.55
2023-05-11T22:20:11.083Z,81.68
2023-05-11T22:22:39.322Z,81.95
2023-05-11T22:25:09.027Z,81.12
2023-05-11T22:27:37.262Z,81.33
2023-05-11T22:30:08.920Z,82.15
2023-05-11T22:32:37.318Z,82.59
2023-05-11T22:35:06.053Z,81.98
2023-05-11T22:37:34.030Z,82.12
2023-05-11T22:40:02.149Z,82.22
2023-05-11T22:42:30.892Z,83.04
2023-05-11T22:44:58.968Z,84.16
2023-05-11T22:47:28.263Z,83.85
2023-05-11T22:49:56.471Z,82.40
2023-05-11T22:52:24.537Z,83.34
2023-05-11T22:54:55.155Z,83.71
2023-05-11T22:57:24.187Z,83.81
2023-05-11T22:59:52.215Z,84.75
2023-05-11T23:02:20.356Z,84.96
2023-05-11T23:04:52.370Z,85.69
2023-05-11T23:07:20.870Z,85.73
2023-05-11T23:09:49.828Z,86.26
2023-05-11T23:12:18.570Z,84.94
2023-05-11T23:14:46.566Z,84.74
2023-05-11T23:17:14.609Z,85.83
2023-05-11T23:19:43.270Z,86.29
2023-05-11T23:22:12.638Z,87.88
2023-05-11T23:24:40.562Z,85.89
2023-05-11T23:27:08.657Z,86.19
2023-05-11T23:29:37.165Z,87.85
2023-05-11T23:32:05.199Z,87.26
2023-05-11T23:34:33.169Z,86.88
2023-05-11T23:37:01.482Z,86.65
2023-05-11T23:39:30.832Z,86.81
2023-05-11T23:41:58.796Z,86.80
2023-05-11T23:44:27.655Z,86.30
2023-05-11T23:46:55.661Z,87.04
2023-05-11T23:49:23.646Z,86.95
2023-05-11T23:51:51.589Z,87.96
2023-05-11T23:54:19.497Z,87.38
2023-05-11T23:56:48.818Z,86.38
2023-05-11T23:59:16.747Z,86.39
